Time;durP1;ratioP1;P1;durP2;ratioP2;P2;SDS_P1;SDS_P2;PMS_P1;PMS_P2;Temp;Humidity;BMP_temperature;BMP_pressure;BME280_temperature;BME280_humidity;BME280_pressure;Samples;Min_cycle;Max_cycle;Signal;HPM_P1;HPM_P2
2023/10/18 00:01:42;;;;;;;2.75;1.23;;;;;;;;;;6161588;28;20056;-76
2023/10/18 00:04:43;;;;;;;1.53;1.10;;;;;;;;;;6172791;28;20054;-76
2023/10/18 00:07:44;;;;;;;1.40;1.13;;;;;;;;;;6152560;28;20058;-75
2023/10/18 00:10:46;;;;;;;2.33;1.23;;;;;;;;;;6177039;28;20268;-75
2023/10/18 00:13:51;;;;;;;1.40;1.15;;;;;;;;;;6172542;28;20027;-76
2023/10/18 00:16:51;;;;;;;1.30;0.93;;;;;;;;;;6173570;28;20363;-76
2023/10/18 00:19:51;;;;;;;1.10;1.00;;;;;;;;;;6172075;28;20126;-75
2023/10/18 00:22:53;;;;;;;1.00;0.90;;;;;;;;;;6173403;28;20030;-75
2023/10/18 00:25:54;;;;;;;1.00;0.88;;;;;;;;;;6175623;28;20068;-76
2023/10/18 00:28:55;;;;;;;0.77;0.77;;;;;;;;;;6164347;28;20399;-75
2023/10/18 00:31:56;;;;;;;1.70;1.27;;;;;;;;;;6171845;28;20038;-75
2023/10/18 00:34:56;;;;;;;1.02;0.93;;;;;;;;;;6173186;28;20046;-74
2023/10/18 00:37:57;;;;;;;1.30;1.10;;;;;;;;;;6169811;28;20527;-75
2023/10/18 00:40:57;;;;;;;1.20;0.87;;;;;;;;;;6171851;28;20027;-75
2023/10/18 00:43:57;;;;;;;1.53;1.00;;;;;;;;;;6172084;28;20076;-76
2023/10/18 00:46:57;;;;;;;1.63;0.90;;;;;;;;;;6171321;28;20574;-76
2023/10/18 00:49:58;;;;;;;1.20;0.90;;;;;;;;;;6175895;28;20018;-75
2023/10/18 00:53:01;;;;;;;1.37;1.03;;;;;;;;;;6174197;28;20034;-75
2023/10/18 00:56:04;;;;;;;1.92;0.82;;;;;;;;;;6172257;28;20035;-75
2023/10/18 00:59:07;;;;;;;1.70;1.13;;;;;;;;;;6174376;28;20031;-76
2023/10/18 01:02:11;;;;;;;1.60;1.27;;;;;;;;;;6170343;28;20045;-75
2023/10/18 01:05:11;;;;;;;1.48;0.93;;;;;;;;;;6173758;28;20042;-75
2023/10/18 01:08:11;;;;;;;1.33;0.97;;;;;;;;;;6173499;28;20096;-75
2023/10/18 01:11:12;;;;;;;1.53;1.10;;;;;;;;;;6173756;28;20039;-75
2023/10/18 01:14:18;;;;;;;1.90;1.00;;;;;;;;;;6174380;28;20037;-75
2023/10/18 01:17:20;;;;;;;0.95;0.85;;;;;;;;;;6172746;28;20035;-75
2023/10/18 01:23:33;;;;;;;1.20;0.80;;;;;;;;;;6170458;28;20483;-75
2023/10/18 01:26:36;;;;;;;1.27;1.07;;;;;;;;;;6173818;28;20240;-75
2023/10/18 01:29:38;;;;;;;1.80;1.05;;;;;;;;;;6168237;28;21563;-75
2023/10/18 01:32:38;;;;;;;1.67;1.05;;;;;;;;;;6169473;28;20153;-75
2023/10/18 01:35:53;;;;;;;1.37;1.10;;;;;;;;;;6177075;28;20035;-75
2023/10/18 01:38:54;;;;;;;1.27;0.85;;;;;;;;;;6187757;28;20291;-75
2023/10/18 01:42:13;;;;;;;2.20;1.02;;;;;;;;;;6170959;28;20590;-75
2023/10/18 01:45:21;;;;;;;1.30;1.00;;;;;;;;;;6169477;28;20038;-76
2023/10/18 01:48:25;;;;;;;1.10;1.00;;;;;;;;;;6168672;28;20482;-76
2023/10/18 01:51:25;;;;;;;1.23;0.93;;;;;;;;;;6173242;28;20027;-75
2023/10/18 01:54:25;;;;;;;1.93;1.30;;;;;;;;;;6194010;28;20118;-75
2023/10/18 01:57:26;;;;;;;1.97;1.07;;;;;;;;;;6206908;28;20016;-75
2023/10/18 02:00:34;;;;;;;1.83;1.30;;;;;;;;;;6189341;28;20038;-75
2023/10/18 02:03:35;;;;;;;1.58;1.20;;;;;;;;;;6215443;28;20083;-75
2023/10/18 02:06:36;;;;;;;2.43;1.10;;;;;;;;;;6171571;28;20035;-75
2023/10/18 02:09:44;;;;;;;;;;;;;;;;;;6175514;28;20483;-75
2023/10/18 02:12:44;;;;;;;1.20;1.00;;;;;;;;;;6194132;28;19914;-75
2023/10/18 02:15:45;;;;;;;1.60;0.97;;;;;;;;;;6199407;28;20395;-76
2023/10/18 02:18:49;;;;;;;1.23;1.13;;;;;;;;;;6204053;28;20034;-76
2023/10/18 02:21:49;;;;;;;2.08;1.20;;;;;;;;;;6200087;28;20109;-76
2023/10/18 02:24:50;;;;;;;1.67;1.37;;;;;;;;;;6170329;28;20726;-75
2023/10/18 02:27:51;;;;;;;1.38;1.08;;;;;;;;;;6171250;28;20027;-76
2023/10/18 02:30:56;;;;;;;2.30;1.23;;;;;;;;;;6172450;28;20041;-75
2023/10/18 02:33:56;;;;;;;1.40;1.20;;;;;;;;;;6179836;28;20023;-75
2023/10/18 02:36:58;;;;;;;1.47;0.97;;;;;;;;;;6176323;28;20121;-75
2023/10/18 02:40:07;;;;;;;1.25;1.13;;;;;;;;;;6172725;28;20047;-75
2023/10/18 02:43:14;;;;;;;1.30;1.15;;;;;;;;;;6174054;28;20383;-75
2023/10/18 02:46:21;;;;;;;1.83;1.38;;;;;;;;;;6166253;28;20100;-75
2023/10/18 02:49:27;;;;;;;1.50;1.15;;;;;;;;;;6175946;28;20040;-75
2023/10/18 02:52:30;;;;;;;1.20;1.10;;;;;;;;;;6172809;28;20079;-75
2023/10/18 02:55:31;;;;;;;1.45;1.33;;;;;;;;;;6176800;28;20085;-73
2023/10/18 02:58:34;;;;;;;1.85;1.23;;;;;;;;;;6174938;28;20922;-73
2023/10/18 03:01:36;;;;;;;1.65;1.00;;;;;;;;;;6177913;28;20033;-72
2023/10/18 03:04:39;;;;;;;1.90;1.42;;;;;;;;;;6174620;28;20035;-72
2023/10/18 03:07:41;;;;;;;1.48;1.38;;;;;;;;;;6173068;28;20030;-72
2023/10/18 03:10:45;;;;;;;1.13;0.95;;;;;;;;;;6173083;28;20027;-74
2023/10/18 03:13:46;;;;;;;1.30;1.20;;;;;;;;;;6175951;28;20035;-72
2023/10/18 03:16:47;;;;;;;1.97;1.23;;;;;;;;;;6173257;28;20502;-72
2023/10/18 03:19:50;;;;;;;2.05;1.40;;;;;;;;;;6173227;28;20467;-74
2023/10/18 03:22:51;;;;;;;1.77;1.30;;;;;;;;;;6174104;28;20027;-72
2023/10/18 03:26:03;;;;;;;2.20;1.48;;;;;;;;;;6173784;28;20468;-72
2023/10/18 03:29:06;;;;;;;2.22;1.35;;;;;;;;;;6175281;28;20042;-73
2023/10/18 03:32:07;;;;;;;1.42;1.15;;;;;;;;;;6172999;28;20401;-72
2023/10/18 03:35:09;;;;;;;1.60;1.20;;;;;;;;;;6171277;28;20037;-74
2023/10/18 03:38:21;;;;;;;2.55;1.48;;;;;;;;;;6171454;28;20069;-72
2023/10/18 03:41:25;;;;;;;1.48;1.08;;;;;;;;;;6157922;28;20042;-72
2023/10/18 03:44:28;;;;;;;2.17;1.25;;;;;;;;;;6169222;28;20033;-73
2023/10/18 03:47:36;;;;;;;1.42;1.25;;;;;;;;;;6172143;28;20055;-72
2023/10/18 03:50:40;;;;;;;1.40;1.30;;;;;;;;;;6172757;28;20022;-73
2023/10/18 03:53:41;;;;;;;1.98;1.52;;;;;;;;;;6171985;28;20039;-72
2023/10/18 03:56:43;;;;;;;1.88;1.50;;;;;;;;;;6172423;28;20022;-73
2023/10/18 03:59:46;;;;;;;1.67;1.25;;;;;;;;;;6173911;28;20031;-72
2023/10/18 04:02:47;;;;;;;1.48;1.33;;;;;;;;;;6173220;28;20035;-74
2023/10/18 04:05:49;;;;;;;1.40;1.30;;;;;;;;;;6171189;28;20031;-76
2023/10/18 04:08:50;;;;;;;2.90;1.52;;;;;;;;;;6173306;28;20022;-76
2023/10/18 04:11:50;;;;;;;1.60;1.40;;;;;;;;;;6170597;28;20026;-76
2023/10/18 04:14:53;;;;;;;3.27;1.50;;;;;;;;;;6171986;28;20030;-76
2023/10/18 04:18:12;;;;;;;4.20;1.70;;;;;;;;;;6173720;28;20476;-76
2023/10/18 04:21:15;;;;;;;2.10;1.70;;;;;;;;;;6172578;28;20118;-75
2023/10/18 04:24:15;;;;;;;1.90;1.60;;;;;;;;;;6172667;28;20784;-76
2023/10/18 04:27:16;;;;;;;2.63;1.73;;;;;;;;;;6169772;28;20136;-76
2023/10/18 04:30:16;;;;;;;1.87;1.60;;;;;;;;;;6172082;28;20038;-76
2023/10/18 04:36:23;;;;;;;2.00;1.75;;;;;;;;;;6171009;28;20134;-77
2023/10/18 04:39:27;;;;;;;1.75;1.60;;;;;;;;;;6175663;28;20051;-76
2023/10/18 04:42:27;;;;;;;1.95;1.75;;;;;;;;;;6170270;28;20034;-76
2023/10/18 04:45:29;;;;;;;1.67;1.57;;;;;;;;;;6172971;28;20526;-76
2023/10/18 04:51:48;;;;;;;1.88;1.70;;;;;;;;;;6173869;28;20459;-76
2023/10/18 04:55:11;;;;;;;2.33;1.80;;;;;;;;;;6172041;28;20060;-76
2023/10/18 04:58:11;;;;;;;2.50;1.65;;;;;;;;;;6172087;28;20118;-76
2023/10/18 05:01:13;;;;;;;3.35;1.83;;;;;;;;;;6174043;28;20023;-76
2023/10/18 05:04:32;;;;;;;2.83;1.88;;;;;;;;;;6169440;28;20034;-76
2023/10/18 05:07:40;;;;;;;2.47;1.80;;;;;;;;;;6176144;28;20026;-76
2023/10/18 05:10:45;;;;;;;1.83;1.55;;;;;;;;;;6171664;28;20026;-77
2023/10/18 05:13:45;;;;;;;2.45;1.80;;;;;;;;;;6169810;28;20403;-76
2023/10/18 05:16:46;;;;;;;2.93;2.10;;;;;;;;;;6166554;28;20120;-76
2023/10/18 05:19:48;;;;;;;2.20;2.00;;;;;;;;;;6161851;28;20042;-76
2023/10/18 05:22:52;;;;;;;;;;;;;;;;;;6171060;28;20030;-76
2023/10/18 05:26:03;;;;;;;2.03;1.60;;;;;;;;;;6172404;28;20005;-76
2023/10/18 05:29:05;;;;;;;1.98;1.73;;;;;;;;;;6167652;28;20030;-76
2023/10/18 05:32:26;;;;;;;2.67;2.05;;;;;;;;;;6173280;28;20022;-76
2023/10/18 05:35:29;;;;;;;2.75;2.10;;;;;;;;;;6176013;28;20427;-76
2023/10/18 05:41:45;;;;;;;2.60;2.10;;;;;;;;;;6170467;28;20037;-76
2023/10/18 05:44:47;;;;;;;2.80;2.13;;;;;;;;;;6169488;28;20034;-76
2023/10/18 05:47:54;;;;;;;4.20;2.13;;;;;;;;;;6171799;28;20037;-76
2023/10/18 05:51:03;;;;;;;2.90;2.13;;;;;;;;;;6171497;28;20034;-77
2023/10/18 05:54:04;;;;;;;2.38;2.17;;;;;;;;;;6170135;28;20026;-76
2023/10/18 05:57:08;;;;;;;2.73;2.20;;;;;;;;;;6171107;28;20395;-76
2023/10/18 06:00:17;;;;;;;3.15;2.35;;;;;;;;;;6170876;28;20031;-76
2023/10/18 06:03:19;;;;;;;2.78;2.22;;;;;;;;;;6175729;28;20022;-75
2023/10/18 06:06:19;;;;;;;3.28;2.30;;;;;;;;;;6177704;28;20116;-76
2023/10/18 06:09:27;;;;;;;3.10;2.20;;;;;;;;;;6172316;28;20054;-75
2023/10/18 06:12:28;;;;;;;2.85;2.17;;;;;;;;;;6176199;28;20034;-76
2023/10/18 06:15:34;;;;;;;2.40;2.10;;;;;;;;;;6178009;28;20027;-76
2023/10/18 06:18:37;;;;;;;2.67;2.08;;;;;;;;;;6171760;28;20038;-76
2023/10/18 06:21:38;;;;;;;4.13;2.15;;;;;;;;;;6172988;28;20467;-76
2023/10/18 06:24:38;;;;;;;3.00;2.25;;;;;;;;;;6174031;28;20057;-76
2023/10/18 06:27:39;;;;;;;2.60;2.13;;;;;;;;;;6173918;28;20030;-73
2023/10/18 06:30:42;;;;;;;3.60;1.70;;;;;;;;;;6175953;28;20105;-73
2023/10/18 06:33:42;;;;;;;3.25;2.22;;;;;;;;;;6173458;28;20030;-73
2023/10/18 06:36:43;;;;;;;2.37;2.03;;;;;;;;;;6175368;28;20667;-73
2023/10/18 06:39:45;;;;;;;3.43;2.20;;;;;;;;;;6173778;28;20448;-73
2023/10/18 06:42:45;;;;;;;2.70;1.80;;;;;;;;;;6173912;28;20022;-73
2023/10/18 06:45:46;;;;;;;3.27;2.17;;;;;;;;;;6173407;28;20030;-74
2023/10/18 06:48:46;;;;;;;3.73;2.13;;;;;;;;;;6173011;28;20113;-73
2023/10/18 06:51:50;;;;;;;2.30;2.10;;;;;;;;;;6172759;28;20323;-72
2023/10/18 06:54:54;;;;;;;4.15;2.35;;;;;;;;;;6173944;28;20387;-72
2023/10/18 06:57:56;;;;;;;3.13;2.28;;;;;;;;;;6163857;28;20510;-72
2023/10/18 07:01:03;;;;;;;3.17;2.38;;;;;;;;;;6172035;28;20066;-73
2023/10/18 07:04:04;;;;;;;2.20;1.98;;;;;;;;;;6179443;28;20022;-72
2023/10/18 07:07:11;;;;;;;2.63;2.42;;;;;;;;;;6175582;28;20050;-74
2023/10/18 07:10:30;;;;;;;2.55;2.35;;;;;;;;;;6174215;28;20054;-72
2023/10/18 07:13:33;;;;;;;3.03;2.30;;;;;;;;;;6178284;28;20071;-72
2023/10/18 07:19:48;;;;;;;3.27;2.23;;;;;;;;;;6194701;28;20034;-75
2023/10/18 07:22:55;;;;;;;2.85;2.20;;;;;;;;;;6173305;28;20060;-72
2023/10/18 07:25:55;;;;;;;3.10;2.38;;;;;;;;;;6170441;28;20081;-72
2023/10/18 07:28:55;;;;;;;3.20;2.70;;;;;;;;;;6160040;28;20039;-74
2023/10/18 07:31:59;;;;;;;3.47;2.40;;;;;;;;;;6196804;28;20061;-73
2023/10/18 07:35:00;;;;;;;2.80;2.30;;;;;;;;;;6190128;28;20018;-72
2023/10/18 07:38:00;;;;;;;2.60;2.20;;;;;;;;;;6172397;28;20073;-72
2023/10/18 07:41:00;;;;;;;2.73;2.50;;;;;;;;;;6181344;28;20031;-72
2023/10/18 07:44:01;;;;;;;2.33;2.10;;;;;;;;;;6162303;28;20587;-74
2023/10/18 07:47:01;;;;;;;2.60;2.27;;;;;;;;;;6175934;28;20039;-77
2023/10/18 07:50:01;;;;;;;2.90;2.30;;;;;;;;;;6195216;28;20482;-77
2023/10/18 07:53:01;;;;;;;3.30;2.37;;;;;;;;;;6189791;28;20042;-77
2023/10/18 07:56:03;;;;;;;4.23;2.30;;;;;;;;;;6192151;28;20471;-77
2023/10/18 08:02:26;;;;;;;2.92;1.88;;;;;;;;;;6186784;28;19906;-77
2023/10/18 08:05:46;;;;;;;2.85;2.25;;;;;;;;;;6184103;28;20038;-77
2023/10/18 08:08:46;;;;;;;2.80;2.30;;;;;;;;;;6185634;28;20030;-76
2023/10/18 08:11:47;;;;;;;2.55;2.35;;;;;;;;;;6213429;28;20502;-77
2023/10/18 08:14:47;;;;;;;3.20;2.47;;;;;;;;;;6190337;28;20038;-77
2023/10/18 08:17:50;;;;;;;2.10;1.77;;;;;;;;;;6180611;28;20057;-77
2023/10/18 08:23:52;;;;;;;2.77;2.50;;;;;;;;;;6173930;28;20418;-76
2023/10/18 08:26:59;;;;;;;3.05;2.45;;;;;;;;;;6192209;28;20035;-75
2023/10/18 08:30:12;;;;;;;2.70;2.42;;;;;;;;;;6168833;28;20503;-75
2023/10/18 08:33:12;;;;;;;3.30;2.47;;;;;;;;;;6217294;28;20110;-76
2023/10/18 08:36:13;;;;;;;2.80;2.53;;;;;;;;;;6322573;28;20478;-76
2023/10/18 08:39:15;;;;;;;4.20;2.63;;;;;;;;;;6322689;28;20395;-76
2023/10/18 08:42:17;;;;;;;3.08;2.47;;;;;;;;;;6184863;28;20035;-76
2023/10/18 08:45:23;;;;;;;4.10;2.60;;;;;;;;;;6189003;28;20050;-76
2023/10/18 08:48:30;;;;;;;2.80;2.60;;;;;;;;;;6174644;28;20031;-76
2023/10/18 08:51:30;;;;;;;3.10;2.80;;;;;;;;;;6172969;28;20041;-76
2023/10/18 08:54:30;;;;;;;2.70;2.37;;;;;;;;;;6186964;28;20018;-75
2023/10/18 08:57:37;;;;;;;3.17;2.40;;;;;;;;;;6181497;28;20111;-72
2023/10/18 09:03:37;;;;;;;2.88;2.38;;;;;;;;;;6204013;28;20044;-71
2023/10/18 09:06:40;;;;;;;3.67;2.20;;;;;;;;;;6178803;28;20046;-72
2023/10/18 09:09:42;;;;;;;2.92;2.63;;;;;;;;;;6177906;28;20042;-72
2023/10/18 09:15:54;;;;;;;2.58;1.92;;;;;;;;;;6175379;28;20018;-73
2023/10/18 09:18:55;;;;;;;2.35;2.15;;;;;;;;;;6187278;28;20038;-72
2023/10/18 09:22:01;;;;;;;2.77;2.40;;;;;;;;;;6185988;28;20068;-71
2023/10/18 09:25:01;;;;;;;3.08;2.40;;;;;;;;;;6177301;28;20121;-72
2023/10/18 09:28:10;;;;;;;2.67;2.43;;;;;;;;;;6189430;28;20088;-73
2023/10/18 09:31:11;;;;;;;3.03;2.03;;;;;;;;;;6190978;28;20026;-72
2023/10/18 09:34:11;;;;;;;2.25;2.05;;;;;;;;;;6190298;28;20030;-72
2023/10/18 09:37:12;;;;;;;2.63;2.40;;;;;;;;;;6181686;28;20364;-72
2023/10/18 09:40:12;;;;;;;2.40;2.10;;;;;;;;;;6190855;28;20082;-72
2023/10/18 09:43:12;;;;;;;2.77;2.47;;;;;;;;;;6183018;28;20224;-75
2023/10/18 09:46:13;;;;;;;3.03;2.47;;;;;;;;;;6174223;28;20081;-73
2023/10/18 09:49:21;;;;;;;2.78;2.30;;;;;;;;;;6180832;28;20048;-72
2023/10/18 09:52:23;;;;;;;2.30;2.05;;;;;;;;;;6173938;28;20064;-74
2023/10/18 09:55:27;;;;;;;2.42;2.22;;;;;;;;;;6247739;28;20035;-73
2023/10/18 09:58:29;;;;;;;2.40;1.95;;;;;;;;;;6206090;28;20022;-72
2023/10/18 10:01:30;;;;;;;;;;;;;;;;;;6184975;28;20023;-72
2023/10/18 10:04:35;;;;;;;1.70;1.58;;;;;;;;;;6160532;28;19910;-72
2023/10/18 10:07:39;;;;;;;2.25;2.03;;;;;;;;;;6181681;28;20114;-72
2023/10/18 10:10:45;;;;;;;3.72;2.00;;;;;;;;;;6172685;28;20088;-74
2023/10/18 10:13:49;;;;;;;2.30;1.98;;;;;;;;;;6171062;28;20019;-73
2023/10/18 10:17:07;;;;;;;2.75;2.25;;;;;;;;;;6169482;28;20035;-72
2023/10/18 10:20:10;;;;;;;3.25;2.70;;;;;;;;;;6169722;28;20462;-71
2023/10/18 10:23:17;;;;;;;2.70;2.22;;;;;;;;;;6164011;28;20414;-72
2023/10/18 10:26:27;;;;;;;2.53;1.98;;;;;;;;;;6175713;28;20019;-72
2023/10/18 10:32:28;;;;;;;2.53;2.33;;;;;;;;;;6177963;28;20053;-72
2023/10/18 10:35:35;;;;;;;2.10;1.90;;;;;;;;;;6194576;28;20018;-72
2023/10/18 10:38:38;;;;;;;2.40;2.20;;;;;;;;;;6178119;28;20078;-72
2023/10/18 10:41:40;;;;;;;2.33;2.13;;;;;;;;;;6197823;28;20050;-72
2023/10/18 10:44:57;;;;;;;2.40;2.20;;;;;;;;;;6186269;28;20023;-72
2023/10/18 10:48:15;;;;;;;3.38;2.33;;;;;;;;;;6190384;28;20439;-72
2023/10/18 10:51:21;;;;;;;2.83;2.47;;;;;;;;;;6180389;28;20034;-72
2023/10/18 10:54:26;;;;;;;2.83;2.20;;;;;;;;;;6188968;28;20078;-72
2023/10/18 10:57:27;;;;;;;2.40;2.08;;;;;;;;;;6179136;28;20050;-71
2023/10/18 11:00:38;;;;;;;2.15;1.98;;;;;;;;;;6194918;28;20479;-72
2023/10/18 11:03:54;;;;;;;2.08;1.80;;;;;;;;;;6194526;28;20030;-71
2023/10/18 11:06:57;;;;;;;2.85;2.03;;;;;;;;;;6164890;28;20030;-72
2023/10/18 11:10:06;;;;;;;2.70;1.92;;;;;;;;;;6186096;28;20039;-72
2023/10/18 11:13:08;;;;;;;2.33;2.13;;;;;;;;;;6173742;28;20030;-72
2023/10/18 11:16:11;;;;;;;2.15;1.95;;;;;;;;;;6184187;28;20045;-71
2023/10/18 11:19:15;;;;;;;2.15;1.95;;;;;;;;;;6195537;28;20026;-72
2023/10/18 11:22:22;;;;;;;2.38;2.13;;;;;;;;;;6197222;28;20030;-72
2023/10/18 11:25:30;;;;;;;2.38;2.15;;;;;;;;;;6193184;28;20026;-72
2023/10/18 11:28:31;;;;;;;2.05;1.88;;;;;;;;;;6194246;28;20038;-73
2023/10/18 11:31:32;;;;;;;2.17;1.98;;;;;;;;;;6193697;28;20071;-76
2023/10/18 11:34:33;;;;;;;2.00;1.80;;;;;;;;;;6188980;28;20034;-77
2023/10/18 11:37:36;;;;;;;3.88;2.30;;;;;;;;;;6171947;28;20031;-77
2023/10/18 11:40:44;;;;;;;2.35;2.15;;;;;;;;;;6176720;28;20407;-77
2023/10/18 11:43:50;;;;;;;2.92;2.15;;;;;;;;;;6180634;28;20481;-77
2023/10/18 11:46:56;;;;;;;2.50;2.30;;;;;;;;;;6179324;28;20376;-77
2023/10/18 11:49:57;;;;;;;2.95;2.08;;;;;;;;;;6195479;28;20032;-76
2023/10/18 11:53:06;;;;;;;2.50;2.25;;;;;;;;;;6190461;28;20026;-77
2023/10/18 11:56:08;;;;;;;2.05;1.95;;;;;;;;;;6212294;28;20026;-77
2023/10/18 11:59:08;;;;;;;2.42;1.88;;;;;;;;;;6202292;28;20034;-77
2023/10/18 12:02:13;;;;;;;2.60;2.10;;;;;;;;;;6191687;28;20163;-76
2023/10/18 12:05:15;;;;;;;3.33;2.15;;;;;;;;;;6189950;28;20023;-77
2023/10/18 12:08:16;;;;;;;2.65;2.25;;;;;;;;;;6185076;28;20026;-77
2023/10/18 12:11:16;;;;;;;2.22;1.95;;;;;;;;;;6185594;28;20035;-76
2023/10/18 12:14:18;;;;;;;2.20;2.00;;;;;;;;;;6193453;28;20949;-77
2023/10/18 12:17:18;;;;;;;2.15;1.95;;;;;;;;;;6184831;28;20114;-77
2023/10/18 12:20:25;;;;;;;2.30;2.10;;;;;;;;;;6195875;28;20367;-76
2023/10/18 12:23:26;;;;;;;2.40;2.20;;;;;;;;;;6190214;28;20403;-77
2023/10/18 12:26:26;;;;;;;2.15;1.95;;;;;;;;;;6195048;28;20030;-75
2023/10/18 12:29:27;;;;;;;2.00;1.90;;;;;;;;;;6188345;28;20088;-75
2023/10/18 12:32:27;;;;;;;2.20;2.00;;;;;;;;;;6192608;28;20313;-78
2023/10/18 12:35:28;;;;;;;2.10;2.00;;;;;;;;;;6187440;28;20050;-75
2023/10/18 12:38:32;;;;;;;2.85;2.03;;;;;;;;;;6171656;28;20043;-75
2023/10/18 12:41:33;;;;;;;3.90;2.05;;;;;;;;;;6192182;28;20045;-75
2023/10/18 12:44:33;;;;;;;2.20;2.00;;;;;;;;;;6196452;28;20034;-75
2023/10/18 12:47:34;;;;;;;3.70;1.83;;;;;;;;;;6174724;28;20034;-75
2023/10/18 12:50:34;;;;;;;2.53;1.85;;;;;;;;;;6183417;28;20014;-80
2023/10/18 12:53:56;;;;;;;2.22;2.03;;;;;;;;;;6189654;28;20038;-75
2023/10/18 12:56:57;;;;;;;2.08;1.90;;;;;;;;;;6192442;28;20045;-75
2023/10/18 13:05:59;;;;;;;2.03;1.93;;;;;;;;;;6203908;28;20036;-75
2023/10/18 13:09:15;;;;;;;2.07;1.87;;;;;;;;;;6178228;28;20037;-76
2023/10/18 13:12:16;;;;;;;2.17;1.92;;;;;;;;;;6172231;28;20639;-75
2023/10/18 13:15:16;;;;;;;2.50;2.22;;;;;;;;;;6183976;28;20037;-75
2023/10/18 13:18:16;;;;;;;2.00;1.80;;;;;;;;;;6192888;28;20485;-75
2023/10/18 13:21:17;;;;;;;2.00;1.77;;;;;;;;;;6195284;28;20026;-75
2023/10/18 13:24:17;;;;;;;2.70;2.40;;;;;;;;;;6177237;28;20046;-75
2023/10/18 13:27:28;;;;;;;1.90;1.73;;;;;;;;;;6175267;28;20052;-75
2023/10/18 13:30:32;;;;;;;2.45;1.83;;;;;;;;;;6188895;28;20038;-75
2023/10/18 13:33:33;;;;;;;2.30;1.92;;;;;;;;;;6182126;28;20026;-75
2023/10/18 13:36:34;;;;;;;2.13;1.92;;;;;;;;;;6169103;28;20121;-75
2023/10/18 13:39:34;;;;;;;2.27;2.03;;;;;;;;;;6187663;28;20053;-75
2023/10/18 13:42:35;;;;;;;2.42;2.15;;;;;;;;;;6194321;28;20022;-75
2023/10/18 13:45:37;;;;;;;2.13;1.92;;;;;;;;;;6174568;28;20031;-75
2023/10/18 13:48:38;;;;;;;2.50;1.98;;;;;;;;;;6165077;28;20483;-75
2023/10/18 13:51:38;;;;;;;;;;;;;;;;;;6180235;28;20029;-75
2023/10/18 13:54:38;;;;;;;2.90;1.92;;;;;;;;;;6160049;28;19913;-75
2023/10/18 13:57:38;;;;;;;3.47;1.97;;;;;;;;;;6187157;28;20030;-75
2023/10/18 14:00:43;;;;;;;2.27;2.07;;;;;;;;;;6171051;28;20422;-75
2023/10/18 14:03:47;;;;;;;2.60;2.40;;;;;;;;;;6187512;28;20064;-76
2023/10/18 14:06:48;;;;;;;2.47;2.22;;;;;;;;;;6183590;28;20023;-75
2023/10/18 14:09:48;;;;;;;2.42;2.22;;;;;;;;;;6171455;28;20419;-75
2023/10/18 14:12:49;;;;;;;2.15;1.95;;;;;;;;;;6183897;28;20026;-75
2023/10/18 14:15:49;;;;;;;2.67;2.30;;;;;;;;;;6186663;28;20137;-78
2023/10/18 14:18:51;;;;;;;2.43;2.23;;;;;;;;;;6195001;28;20059;-75
2023/10/18 14:21:51;;;;;;;2.75;2.00;;;;;;;;;;6187702;28;20022;-75
2023/10/18 14:24:53;;;;;;;3.27;2.20;;;;;;;;;;6191441;28;20054;-76
2023/10/18 14:27:53;;;;;;;2.92;2.25;;;;;;;;;;6198587;28;20014;-75
2023/10/18 14:30:57;;;;;;;4.80;2.07;;;;;;;;;;6198505;28;20391;-76
2023/10/18 14:33:57;;;;;;;3.28;2.13;;;;;;;;;;6177121;28;20025;-76
2023/10/18 14:36:58;;;;;;;2.33;1.97;;;;;;;;;;6173938;28;20030;-77
2023/10/18 14:39:58;;;;;;;4.03;2.23;;;;;;;;;;6178308;28;20051;-74
2023/10/18 14:42:58;;;;;;;2.30;2.10;;;;;;;;;;6185061;28;20426;-74
2023/10/18 14:45:59;;;;;;;2.13;1.93;;;;;;;;;;6176710;28;20037;-77
2023/10/18 14:48:59;;;;;;;2.10;1.90;;;;;;;;;;6192451;28;20038;-80
2023/10/18 14:51:59;;;;;;;2.60;2.07;;;;;;;;;;6199209;28;20095;-77
2023/10/18 14:55:02;;;;;;;2.43;2.23;;;;;;;;;;6183354;28;20485;-76
2023/10/18 14:58:02;;;;;;;2.80;2.10;;;;;;;;;;6195080;28;20069;-77
2023/10/18 15:01:04;;;;;;;2.37;2.17;;;;;;;;;;6173779;28;20120;-80
2023/10/18 15:04:07;;;;;;;3.03;2.17;;;;;;;;;;6174023;28;20023;-77
2023/10/18 15:07:07;;;;;;;2.65;2.42;;;;;;;;;;6173963;28;20027;-77
2023/10/18 15:10:07;;;;;;;2.37;2.10;;;;;;;;;;6174294;28;20053;-77
2023/10/18 15:13:08;;;;;;;2.70;2.00;;;;;;;;;;6190644;28;20025;-76
2023/10/18 15:16:10;;;;;;;2.47;2.27;;;;;;;;;;6197202;28;20050;-78
2023/10/18 15:19:13;;;;;;;2.50;2.13;;;;;;;;;;6189018;28;20030;-77
2023/10/18 15:22:13;;;;;;;2.15;1.98;;;;;;;;;;6193761;28;20475;-79
2023/10/18 15:25:16;;;;;;;1.87;1.70;;;;;;;;;;6181658;28;20023;-78
2023/10/18 15:28:16;;;;;;;2.97;1.83;;;;;;;;;;6193186;28;20026;-77
2023/10/18 15:31:17;;;;;;;4.63;2.10;;;;;;;;;;6176685;28;20062;-77
2023/10/18 15:34:18;;;;;;;2.97;2.10;;;;;;;;;;6161045;28;20113;-77
2023/10/18 15:37:19;;;;;;;2.08;1.88;;;;;;;;;;6171743;28;20022;-78
2023/10/18 15:40:21;;;;;;;2.28;2.08;;;;;;;;;;6186884;28;20135;-77
2023/10/18 15:43:21;;;;;;;2.22;2.03;;;;;;;;;;6187587;28;20100;-77
2023/10/18 15:46:25;;;;;;;2.40;1.80;;;;;;;;;;6189159;28;20022;-77
2023/10/18 15:49:28;;;;;;;2.10;1.90;;;;;;;;;;6187688;28;20030;-78
2023/10/18 15:52:28;;;;;;;1.63;1.52;;;;;;;;;;6202521;28;20022;-77
2023/10/18 15:55:30;;;;;;;2.17;1.73;;;;;;;;;;6189429;28;20030;-74
2023/10/18 15:58:30;;;;;;;;;;;;;;;;;;6192194;28;20370;-74
2023/10/18 16:01:31;;;;;;;1.50;1.40;;;;;;;;;;6194788;28;19925;-74
2023/10/18 16:04:34;;;;;;;;;;;;;;;;;;6181143;28;20112;-74
2023/10/18 16:07:34;;;;;;;2.35;1.75;;;;;;;;;;6179190;28;20355;-75
2023/10/18 16:10:34;;;;;;;2.27;2.07;;;;;;;;;;6179745;28;20061;-75
2023/10/18 16:13:38;;;;;;;2.80;2.30;;;;;;;;;;6189239;28;20039;-75
2023/10/18 16:16:40;;;;;;;3.17;2.88;;;;;;;;;;6182480;28;20042;-74
2023/10/18 16:19:44;;;;;;;3.13;2.83;;;;;;;;;;6189182;28;20148;-75
2023/10/18 16:22:44;;;;;;;2.85;2.65;;;;;;;;;;6187570;28;20030;-75
2023/10/18 16:25:45;;;;;;;3.55;2.80;;;;;;;;;;6185739;28;20037;-75
2023/10/18 16:28:45;;;;;;;2.90;2.70;;;;;;;;;;6189075;28;20394;-75
2023/10/18 16:31:46;;;;;;;3.85;3.03;;;;;;;;;;6184320;28;20038;-77
2023/10/18 16:34:46;;;;;;;3.77;3.13;;;;;;;;;;6178068;28;20027;-76
2023/10/18 16:37:46;;;;;;;3.90;3.23;;;;;;;;;;6181848;28;20407;-75
2023/10/18 16:40:47;;;;;;;3.33;3.03;;;;;;;;;;6176835;28;20452;-75
2023/10/18 16:43:47;;;;;;;3.27;2.97;;;;;;;;;;6181955;28;20041;-76
2023/10/18 16:46:50;;;;;;;3.47;2.90;;;;;;;;;;6190015;28;20022;-75
2023/10/18 16:49:51;;;;;;;4.78;3.45;;;;;;;;;;6181087;28;20034;-75
2023/10/18 16:52:51;;;;;;;3.25;2.95;;;;;;;;;;6189259;28;20065;-75
2023/10/18 16:55:55;;;;;;;3.58;3.28;;;;;;;;;;6175440;28;20083;-75
2023/10/18 16:58:56;;;;;;;3.80;3.40;;;;;;;;;;6188650;28;20042;-75
2023/10/18 17:01:57;;;;;;;;;;;;;;;;;;6187958;28;20040;-74
2023/10/18 17:04:58;;;;;;;2.50;2.28;;;;;;;;;;6180985;28;19910;-75
2023/10/18 17:07:59;;;;;;;3.43;2.97;;;;;;;;;;6191648;28;20468;-77
2023/10/18 17:10:59;;;;;;;4.55;3.20;;;;;;;;;;6177202;28;20031;-76
2023/10/18 17:13:59;;;;;;;3.87;3.23;;;;;;;;;;6171797;28;20037;-83
2023/10/18 17:17:03;;;;;;;3.63;3.23;;;;;;;;;;6172126;28;20056;-80
2023/10/18 17:20:14;;;;;;;3.80;3.35;;;;;;;;;;6175396;28;20494;-78
2023/10/18 17:23:14;;;;;;;3.42;3.13;;;;;;;;;;6169038;28;20061;-80
2023/10/18 17:26:17;;;;;;;3.27;2.87;;;;;;;;;;6170392;28;20526;-78
2023/10/18 17:29:17;;;;;;;4.22;2.50;;;;;;;;;;6171090;28;20112;-82
2023/10/18 17:32:18;;;;;;;2.90;2.60;;;;;;;;;;6174701;28;20022;-83
2023/10/18 17:35:18;;;;;;;3.27;2.97;;;;;;;;;;6171773;28;20254;-85
2023/10/18 17:38:18;;;;;;;2.90;2.60;;;;;;;;;;6173463;28;20058;-84
2023/10/18 17:41:18;;;;;;;3.50;2.83;;;;;;;;;;6170862;28;20123;-85
2023/10/18 17:44:19;;;;;;;3.50;2.80;;;;;;;;;;6172691;28;20491;-84
2023/10/18 17:47:19;;;;;;;3.10;2.67;;;;;;;;;;6172569;28;20038;-85
2023/10/18 17:50:21;;;;;;;2.70;2.13;;;;;;;;;;6173844;28;20030;-85
2023/10/18 17:53:21;;;;;;;4.22;2.75;;;;;;;;;;6171270;28;20420;-85
2023/10/18 17:56:21;;;;;;;2.70;2.40;;;;;;;;;;6168573;28;20034;-84
2023/10/18 17:59:23;;;;;;;2.53;2.33;;;;;;;;;;6175655;28;20042;-85
2023/10/18 18:02:23;;;;;;;2.78;2.53;;;;;;;;;;6175975;28;20475;-86
2023/10/18 18:05:25;;;;;;;2.73;2.20;;;;;;;;;;6170779;28;20487;-85
2023/10/18 18:08:26;;;;;;;2.38;2.17;;;;;;;;;;6171585;28;21517;-85
2023/10/18 18:11:30;;;;;;;2.83;2.30;;;;;;;;;;6179554;28;20113;-85
2023/10/18 18:14:31;;;;;;;2.70;2.25;;;;;;;;;;6177767;28;20106;-84
2023/10/18 18:17:31;;;;;;;2.42;2.22;;;;;;;;;;6170716;28;20026;-79
2023/10/18 18:20:31;;;;;;;3.10;2.27;;;;;;;;;;6174793;28;20042;-80
2023/10/18 18:23:32;;;;;;;3.10;2.33;;;;;;;;;;6170142;28;20027;-79
2023/10/18 18:26:43;;;;;;;2.87;2.50;;;;;;;;;;6171047;28;20023;-81
2023/10/18 18:29:43;;;;;;;3.38;2.30;;;;;;;;;;6173121;28;20031;-79
2023/10/18 18:32:44;;;;;;;2.67;2.37;;;;;;;;;;5814846;28;9999835;-80
2023/10/18 18:35:44;;;;;;;2.60;2.40;;;;;;;;;;6170395;28;20018;-81
2023/10/18 18:38:44;;;;;;;2.57;2.37;;;;;;;;;;6172344;28;20046;-79
2023/10/18 18:41:46;;;;;;;2.93;2.17;;;;;;;;;;6167717;28;20035;-79
2023/10/18 18:44:46;;;;;;;2.17;1.98;;;;;;;;;;6175159;28;20415;-80
2023/10/18 18:47:47;;;;;;;2.53;2.00;;;;;;;;;;6173971;28;20118;-79
2023/10/18 18:50:47;;;;;;;1.90;1.70;;;;;;;;;;6170005;28;20474;-81
2023/10/18 18:53:47;;;;;;;2.43;1.80;;;;;;;;;;6171741;28;20742;-79
2023/10/18 18:56:48;;;;;;;2.60;1.90;;;;;;;;;;6175325;28;20483;-79